Time;durP1;ratioP1;P1;durP2;ratioP2;P2;SDS_P1;SDS_P2;PMS_P1;PMS_P2;Temp;Humidity;BMP_temperature;BMP_pressure;BME280_temperature;BME280_humidity;BME280_pressure;Samples;Min_cycle;Max_cycle;Signal;HPM_P1;HPM_P2
2022/07/05 06:14:52;;;;;;;;;6.00;6.00;;;;;22.34;44.84;101559.38;5114987;27;45880;-59
2022/07/05 06:17:17;;;;;;;;;5.00;5.00;;;;;21.77;46.20;101560.53;5092710;27;45479;-59
2022/07/05 06:19:43;;;;;;;;;6.00;6.00;;;;;21.34;47.31;101551.78;5093032;27;45585;-59
2022/07/05 06:22:08;;;;;;;;;7.00;7.00;;;;;20.95;48.10;101551.59;5092554;27;45499;-59
2022/07/05 06:24:33;;;;;;;;;6.00;6.00;;;;;20.63;49.32;101552.75;5096118;27;45587;-60
2022/07/05 06:26:59;;;;;;;;;6.50;6.50;;;;;20.26;50.25;101555.00;5113165;27;45476;-59
2022/07/05 06:29:24;;;;;;;;;6.33;6.33;;;;;20.03;50.44;101557.22;5110007;27;45984;-59
2022/07/05 06:31:49;;;;;;;;;8.00;7.00;;;;;19.83;51.97;101561.09;5103948;27;45354;-58
2022/07/05 06:34:15;;;;;;;;;6.00;5.00;;;;;19.71;52.10;101558.28;5101384;27;46073;-60
2022/07/05 06:36:40;;;;;;;;;7.33;6.67;;;;;19.69;51.63;101569.03;5107315;27;59416;-60
2022/07/05 06:39:05;;;;;;;;;10.00;6.00;;;;;19.60;52.96;101569.56;5072155;27;45386;-62
2022/07/05 06:41:30;;;;;;;;;8.67;6.67;;;;;19.52;52.78;101572.66;5071748;27;52294;-63
2022/07/05 06:43:57;;;;;;;;;7.00;7.00;;;;;19.50;53.41;101574.53;5072109;27;45412;-59
2022/07/05 06:46:22;;;;;;;;;8.33;7.00;;;;;19.51;53.37;101578.94;5072018;28;45430;-62
2022/07/05 06:48:48;;;;;;;;;6.33;6.33;;;;;19.46;52.11;101580.16;5072223;27;45456;-62
2022/07/05 06:51:13;;;;;;;;;10.33;8.00;;;;;19.47;52.74;101577.38;5071856;28;45315;-60
2022/07/05 06:53:38;;;;;;;;;8.00;8.00;;;;;19.46;53.61;101575.69;5071763;27;45410;-60
2022/07/05 06:56:04;;;;;;;;;6.67;6.67;;;;;19.48;53.76;101578.25;5071822;27;45315;-60
2022/07/05 06:58:29;;;;;;;;;6.33;6.33;;;;;19.45;53.24;101575.75;5071728;27;45431;-59
2022/07/05 07:00:55;;;;;;;;;8.67;8.67;;;;;19.53;53.11;101581.50;5071551;27;52192;-60
2022/07/05 07:03:20;;;;;;;;;10.67;9.67;;;;;19.56;52.85;101584.03;5071333;27;46131;-61
2022/07/05 07:05:46;;;;;;;;;7.33;7.33;;;;;19.53;53.29;101582.41;5071530;28;45425;-60
2022/07/05 07:10:54;;;;;;;;;8.00;7.67;;;;;19.55;51.82;101575.13;5071750;28;45459;-61
2022/07/05 07:13:20;;;;;;;;;8.67;6.67;;;;;19.57;53.13;101577.72;5071337;27;45481;-61
2022/07/05 07:15:47;;;;;;;;;10.00;9.00;;;;;19.53;53.95;101578.84;5071438;28;45428;-60
2022/07/05 07:18:13;;;;;;;;;7.67;7.33;;;;;19.55;53.23;101574.28;5071560;27;45390;-60
2022/07/05 07:20:38;;;;;;;;;7.67;7.00;;;;;19.64;53.62;101577.28;5071448;28;45639;-61
2022/07/05 07:23:04;;;;;;;;;9.33;9.00;;;;;19.69;53.20;101579.72;5071259;28;45989;-60
2022/07/05 07:25:29;;;;;;;;;8.00;8.00;;;;;19.76;52.51;101583.75;5061847;28;45465;-60
2022/07/05 07:27:55;;;;;;;;;8.33;8.33;;;;;19.80;53.05;101584.44;5058562;27;45417;-60
2022/07/05 07:30:24;;;;;;;;;7.33;7.33;;;;;19.87;52.23;101583.13;5057893;28;45617;-61
2022/07/05 07:32:49;;;;;;;;;7.00;7.00;;;;;19.94;52.21;101580.97;5055846;28;46059;-61
2022/07/05 07:35:14;;;;;;;;;9.33;9.33;;;;;19.99;52.30;101581.56;5057386;28;45446;-60
2022/07/05 07:37:40;;;;;;;;;9.67;9.67;;;;;19.97;52.69;101583.47;5057475;28;45382;-60
2022/07/05 07:40:07;;;;;;;;;9.00;8.00;;;;;20.01;51.91;101582.31;5057746;28;45474;-61
2022/07/05 07:42:33;;;;;;;;;7.67;7.67;;;;;20.04;52.09;101591.03;5057987;28;45405;-60
2022/07/05 07:44:58;;;;;;;;;11.00;11.00;;;;;20.04;52.31;101583.00;5057365;28;45440;-60
2022/07/05 07:47:24;;;;;;;;;9.67;9.67;;;;;20.10;51.96;101589.78;5057303;28;45440;-60
2022/07/05 07:49:49;;;;;;;;;11.00;10.33;;;;;20.15;52.08;101592.16;5057435;28;45383;-61
2022/07/05 07:52:15;;;;;;;;;7.00;7.00;;;;;20.17;51.72;101590.28;5057205;28;45417;-60
2022/07/05 07:54:40;;;;;;;;;9.67;8.67;;;;;20.17;52.13;101593.78;5057067;28;45404;-60
2022/07/05 07:57:06;;;;;;;;;12.33;11.33;;;;;20.23;51.68;101595.25;5057507;28;45384;-60
2022/07/05 07:59:32;;;;;;;;;9.00;7.33;;;;;20.27;50.87;101602.13;5057442;28;45308;-59
2022/07/05 08:01:57;;;;;;;;;12.00;9.00;;;;;20.25;51.89;101598.69;5056812;28;46082;-59
2022/07/05 08:04:23;;;;;;;;;8.00;8.00;;;;;20.27;51.16;101596.78;5057104;28;45374;-59
2022/07/05 08:06:48;;;;;;;;;10.00;10.00;;;;;20.27;51.37;101599.47;5057330;28;45411;-59
2022/07/05 08:09:13;;;;;;;;;9.33;7.33;;;;;20.29;51.24;101593.06;5057161;28;45375;-62
2022/07/05 08:11:39;;;;;;;;;10.00;8.67;;;;;20.30;51.52;101588.59;5056910;28;46187;-62
2022/07/05 08:14:04;;;;;;;;;10.00;10.00;;;;;20.36;51.60;101592.69;5055619;28;45540;-61
2022/07/05 08:16:30;;;;;;;;;7.67;7.67;;;;;20.37;51.35;101592.63;5057164;28;45485;-61
2022/07/05 08:21:39;;;;;;;;;7.00;7.00;;;;;20.38;50.89;101585.44;5056973;28;45695;-62
2022/07/05 08:24:06;;;;;;;;;8.33;8.33;;;;;20.36;51.06;101579.34;5057174;28;45488;-60
2022/07/05 08:26:32;;;;;;;;;11.00;9.33;;;;;20.42;50.56;101585.19;5057134;28;45406;-61
2022/07/05 08:28:58;;;;;;;;;8.00;7.00;;;;;20.49;50.60;101583.81;5056908;28;45501;-60
2022/07/05 08:31:25;;;;;;;;;7.67;6.00;;;;;20.54;50.25;101582.75;5056774;28;46370;-60
2022/07/05 08:33:50;;;;;;;;;8.33;8.33;;;;;20.57;50.44;101575.38;5056440;28;45367;-59
2022/07/05 08:36:16;;;;;;;;;7.00;7.00;;;;;20.56;49.81;101588.84;5055424;28;45435;-61
2022/07/05 08:38:41;;;;;;;;;7.67;7.67;;;;;20.56;49.79;101573.69;5055255;28;45458;-61
2022/07/05 08:41:09;;;;;;;;;9.00;9.00;;;;;20.59;49.81;101577.97;5056610;28;46472;-61
2022/07/05 08:43:39;;;;;;;;;8.33;8.33;;;;;20.58;49.99;101573.56;5055508;28;45561;-61
2022/07/05 08:46:08;;;;;;;;;5.67;5.67;;;;;20.61;49.78;101574.25;5056690;28;45391;-61
2022/07/05 08:48:41;;;;;;;;;9.33;7.33;;;;;20.66;49.19;101579.28;5056486;28;45500;-60
2022/07/05 08:51:16;;;;;;;;;5.00;5.00;;;;;20.70;49.66;101573.66;5056673;28;46353;-60
2022/07/05 08:53:43;;;;;;;;;7.67;5.00;;;;;20.76;48.67;101571.56;5056499;28;45493;-60
2022/07/05 08:56:09;;;;;;;;;6.67;5.33;;;;;20.74;48.42;101577.88;5056758;28;45512;-60
2022/07/05 08:58:35;;;;;;;;;4.00;4.00;;;;;20.78;47.94;101580.34;5056455;28;45587;-60
2022/07/05 09:01:01;;;;;;;;;7.00;7.00;;;;;20.83;48.32;101583.59;5056069;28;45488;-61
2022/07/05 09:03:33;;;;;;;;;7.67;7.67;;;;;20.84;48.57;101575.47;5056266;28;45481;-60
2022/07/05 09:06:01;;;;;;;;;9.33;8.33;;;;;20.89;48.65;101580.53;5056609;28;45409;-61
2022/07/05 09:08:32;;;;;;;;;5.00;4.33;;;;;20.90;47.65;101577.78;5071755;28;45529;-60
2022/07/05 09:11:01;;;;;;;;;5.33;5.33;;;;;20.92;47.87;101562.47;5055944;28;45533;-61
2022/07/05 09:13:26;;;;;;;;;4.75;4.75;;;;;21.00;47.46;101574.50;5055812;28;45438;-60
2022/07/05 09:15:52;;;;;;;;;4.67;4.67;;;;;20.98;47.10;101565.72;5056124;28;45419;-59
2022/07/05 09:18:43;;;;;;;;;5.00;5.00;;;;;21.03;46.63;101577.84;5056153;28;45412;-61
2022/07/05 09:21:27;;;;;;;;;5.00;5.00;;;;;21.06;47.05;101568.75;5055918;28;47328;-61
2022/07/05 09:24:01;;;;;;;;;7.00;6.33;;;;;21.07;46.82;101576.69;5055908;28;45378;-61
2022/07/05 09:26:40;;;;;;;;;4.00;4.00;;;;;21.09;46.47;101569.44;5056100;28;45461;-61
2022/07/05 09:29:10;;;;;;;;;8.00;7.00;;;;;21.13;46.50;101575.44;5055984;28;45445;-62
2022/07/05 09:31:39;;;;;;;;;7.00;5.25;;;;;21.15;46.55;101571.72;5055660;28;46611;-60
2022/07/05 09:34:06;;;;;;;;;6.33;6.33;;;;;21.17;46.83;101568.91;5055940;28;45403;-62
2022/07/05 09:36:46;;;;;;;;;6.67;5.67;;;;;21.23;46.65;101563.19;5056097;28;45405;-61
2022/07/05 09:39:11;;;;;;;;;6.33;6.00;;;;;21.27;46.93;101585.25;5056037;28;45651;-60
2022/07/05 09:41:37;;;;;;;;;5.33;5.00;;;;;21.29;46.54;101570.81;5055607;28;48904;-61
2022/07/05 09:44:02;;;;;;;;;4.67;3.00;;;;;21.30;46.19;101572.53;5055879;28;45374;-62
2022/07/05 09:46:31;;;;;;;;;4.67;4.67;;;;;21.34;46.02;101576.72;5055808;28;45711;-61
2022/07/05 09:48:57;;;;;;;;;8.00;6.67;;;;;21.36;45.94;101571.28;5055289;28;45420;-61
2022/07/05 09:51:22;;;;;;;;;5.67;5.00;;;;;21.34;45.04;101574.06;5055573;28;45445;-61
2022/07/05 09:53:56;;;;;;;;;4.00;4.00;;;;;21.36;44.61;101568.63;5055543;28;45547;-60
2022/07/05 09:56:23;;;;;;;;;5.50;5.50;;;;;21.41;45.41;101574.53;5055662;28;45440;-61
2022/07/05 09:58:49;;;;;;;;;7.67;7.33;;;;;21.46;45.14;101575.09;5055314;28;45426;-62
2022/07/05 10:01:28;;;;;;;;;6.00;6.00;;;;;21.50;44.79;101575.78;5053657;28;46561;-61
2022/07/05 10:03:57;;;;;;;;;6.33;6.33;;;;;21.53;44.99;101572.88;5055354;28;45364;-61
2022/07/05 10:06:24;;;;;;;;;8.00;6.67;;;;;21.54;45.47;101571.91;5054139;28;45510;-61
2022/07/05 10:08:50;;;;;;;;;6.67;6.67;;;;;21.58;45.08;101570.75;5055446;28;45576;-61
2022/07/05 10:11:19;;;;;;;;;4.25;4.25;;;;;21.62;45.13;101580.28;5055029;28;45921;-62
2022/07/05 10:13:50;;;;;;;;;7.00;7.00;;;;;21.67;45.30;101580.84;5054715;28;45419;-61
2022/07/05 10:16:17;;;;;;;;;6.00;6.00;;;;;21.68;44.99;101571.88;5055357;28;45444;-62
2022/07/05 10:18:44;;;;;;;;;6.00;6.00;;;;;21.69;45.22;101576.25;5055121;28;45356;-62
2022/07/05 10:21:14;;;;;;;;;7.67;7.67;;;;;21.74;44.65;101571.47;5055010;28;45491;-61
2022/07/05 10:23:48;;;;;;;;;7.00;5.00;;;;;21.81;44.55;101571.88;5054619;28;45453;-62
2022/07/05 10:26:15;;;;;;;;;7.00;7.00;;;;;21.86;44.36;101585.84;5054821;28;45449;-61
2022/07/05 10:28:44;;;;;;;;;6.00;5.25;;;;;21.89;43.39;101579.41;5055057;28;45327;-62
2022/07/05 10:31:15;;;;;;;;;1.00;1.00;;;;;21.88;43.72;101575.88;5054731;28;46190;-60
2022/07/05 10:33:41;;;;;;;;;12.00;11.00;;;;;21.93;44.01;101583.63;5054283;28;45470;-60
2022/07/05 10:36:10;;;;;;;;;7.33;7.33;;;;;21.93;43.57;101579.13;5054480;28;45466;-62
2022/07/05 10:38:42;;;;;;;;;7.00;7.00;;;;;21.90;43.92;101584.69;5054341;28;45456;-61
2022/07/05 10:41:10;;;;;;;;;7.50;7.50;;;;;21.95;43.56;101576.31;5054126;28;45439;-61
2022/07/05 10:43:36;;;;;;;;;8.00;8.00;;;;;21.97;43.11;101569.91;5053829;28;45568;-61
2022/07/05 10:46:06;;;;;;;;;6.25;6.25;;;;;22.00;42.77;101561.69;5054227;28;45451;-60
2022/07/05 10:48:32;;;;;;;;;8.50;7.00;;;;;22.02;43.89;101564.22;5059727;28;45587;-61
2022/07/05 10:51:07;;;;;;;;;7.25;7.25;;;;;22.08;43.85;101563.81;5072445;28;46427;-60
2022/07/05 10:53:36;;;;;;;;;8.00;7.25;;;;;22.10;43.58;101556.53;5074691;28;45565;-60
2022/07/05 10:56:04;;;;;;;;;9.00;8.25;;;;;22.15;43.42;101559.75;5074631;28;45502;-60
2022/07/05 10:58:38;;;;;;;;;10.00;8.00;;;;;22.17;42.83;101557.84;5062165;28;45498;-60
2022/07/05 11:01:19;;;;;;;;;5.50;5.50;;;;;22.17;43.45;101562.34;5056153;28;46207;-60
2022/07/05 11:03:47;;;;;;;;;21.00;21.00;;;;;22.24;43.10;101566.31;5067919;28;45555;-60
2022/07/05 11:06:26;;;;;;;;;17.00;16.00;;;;;22.27;43.43;101552.72;5077853;28;45522;-60
2022/07/05 11:08:57;;;;;;;;;6.25;5.50;;;;;22.27;42.90;101552.72;5077519;28;45371;-60
2022/07/05 11:11:27;;;;;;;;;12.00;12.00;;;;;22.30;43.24;101546.28;5077337;27;45561;-60
2022/07/05 11:13:58;;;;;;;;;14.67;14.33;;;;;22.35;42.58;101550.34;5076441;27;45487;-60
2022/07/05 11:16:25;;;;;;;;;8.00;8.00;;;;;22.36;42.48;101560.13;5065165;27;45477;-60
2022/07/05 11:19:11;;;;;;;;;6.25;6.25;;;;;22.35;42.89;101565.56;5073719;28;45598;-60
2022/07/05 11:21:57;;;;;;;;;6.75;6.75;;;;;22.41;42.71;101559.81;5079862;27;45470;-60
2022/07/05 11:24:26;;;;;;;;;6.25;6.25;;;;;22.51;42.48;101552.81;5076243;27;45499;-59
2022/07/05 11:26:53;;;;;;;;;8.25;8.25;;;;;22.54;42.30;101549.06;5071318;27;45489;-60
2022/07/05 11:29:51;;;;;;;;;9.50;7.25;;;;;22.56;42.19;101544.44;5070301;27;45523;-61
2022/07/05 11:32:19;;;;;;;;;7.00;7.00;;;;;22.60;42.25;101544.13;5077544;28;45964;-61
2022/07/05 11:34:46;;;;;;;;;7.00;7.00;;;;;22.66;41.40;101549.06;5077888;27;45532;-61
2022/07/05 11:37:26;;;;;;;;;7.25;7.25;;;;;22.74;41.44;101544.97;5069476;27;45427;-61
2022/07/05 11:40:10;;;;;;;;;6.00;6.00;;;;;22.78;41.90;101547.31;5067806;28;45619;-62
2022/07/05 11:42:41;;;;;;;;;7.75;6.25;;;;;22.84;40.99;101540.69;5057217;28;46006;-59
2022/07/05 11:45:08;;;;;;;;;5.75;5.75;;;;;22.88;41.36;101537.63;5077408;27;45498;-59
2022/07/05 11:47:34;;;;;;;;;6.75;6.50;;;;;22.96;41.33;101531.75;5057412;28;45449;-60
2022/07/05 11:49:59;;;;;;;;;5.00;5.00;;;;;23.00;41.09;101541.31;5057357;28;45484;-63
2022/07/05 11:52:29;;;;;;;;;6.00;6.00;;;;;23.05;41.02;101532.91;5057262;28;46187;-61
2022/07/05 11:54:57;;;;;;;;;8.75;8.75;;;;;23.08;40.93;101530.88;5057548;28;45671;-62
2022/07/05 11:57:23;;;;;;;;;10.25;9.75;;;;;23.13;41.27;101534.06;5061169;28;45538;-62
2022/07/05 11:59:49;;;;;;;;;10.25;7.50;;;;;23.19;40.66;101526.56;5067516;27;45489;-62
2022/07/05 12:02:15;;;;;;;;;9.00;9.00;;;;;23.26;40.43;101525.09;5057353;28;45492;-62
2022/07/05 12:04:40;;;;;;;;;6.75;5.25;;;;;23.31;40.37;101525.63;5057051;28;45462;-62
2022/07/05 12:07:06;;;;;;;;;5.25;5.25;;;;;23.37;40.38;101527.84;5057354;28;45928;-63
2022/07/05 12:15:03;;;;;;;;;5.50;5.50;;;;;23.59;40.05;101508.31;5056844;28;45324;-63
2022/07/05 12:17:29;;;;;;;;;13.25;11.75;;;;;23.68;40.08;101520.19;5056900;28;45369;-63
2022/07/05 12:19:54;;;;;;;;;13.75;12.50;;;;;23.67;39.90;101513.97;5056905;28;45704;-62
2022/07/05 12:22:34;;;;;;;;;11.50;9.25;;;;;23.68;39.90;101522.88;5056918;28;45946;-62
2022/07/05 12:25:01;;;;;;;;;6.00;4.75;;;;;23.63;39.15;101520.53;5056964;28;45476;-61
2022/07/05 12:27:27;;;;;;;;;3.75;3.00;;;;;23.60;39.20;101512.69;5056936;28;45378;-61
2022/07/05 12:29:53;;;;;;;;;6.00;6.00;;;;;23.64;39.10;101516.00;5057026;28;45367;-61
2022/07/05 12:32:19;;;;;;;;;6.00;5.00;;;;;23.71;39.25;101518.13;5056736;28;45540;-61
2022/07/05 12:34:44;;;;;;;;;7.75;7.75;;;;;23.79;38.75;101512.19;5056727;28;45354;-61
2022/07/05 12:37:10;;;;;;;;;5.25;5.25;;;;;23.89;39.32;101517.72;5056854;28;45329;-61
2022/07/05 12:39:35;;;;;;;;;5.75;5.75;;;;;23.96;38.98;101508.19;5056779;28;45576;-61
2022/07/05 12:42:01;;;;;;;;;4.25;4.25;;;;;24.05;38.58;101510.19;5056547;28;46595;-61
2022/07/05 12:44:26;;;;;;;;;5.50;5.50;;;;;24.13;38.78;101517.66;5056783;28;45374;-61
2022/07/05 12:46:52;;;;;;;;;5.00;4.00;;;;;24.15;38.48;101521.94;5056858;28;45412;-61
2022/07/05 12:49:18;;;;;;;;;5.75;5.75;;;;;24.13;38.00;101523.03;5056678;28;45616;-60
2022/07/05 12:51:45;;;;;;;;;4.25;4.25;;;;;24.18;37.99;101510.06;5056523;28;45524;-61
2022/07/05 12:59:58;;;;;;;;;5.00;5.00;;;;;24.37;38.06;101515.72;5056384;28;45457;-63
2022/07/05 13:02:35;;;;;;;;;5.50;5.00;;;;;24.42;37.15;101510.84;5056281;28;46082;-61
2022/07/05 13:05:00;;;;;;;;;4.00;4.00;;;;;24.53;37.54;101512.69;5056348;28;45475;-61
2022/07/05 13:07:27;;;;;;;;;6.00;6.00;;;;;24.46;37.24;101498.03;5056696;28;45448;-62
2022/07/05 13:09:52;;;;;;;;;5.25;3.50;;;;;24.48;37.14;101496.06;5056373;28;45532;-62
2022/07/05 13:12:21;;;;;;;;;5.00;5.00;;;;;24.54;37.21;101508.16;5056070;28;45832;-61
2022/07/05 13:14:48;;;;;;;;;3.75;3.75;;;;;24.53;37.33;101501.94;5055494;28;45451;-62
2022/07/05 13:17:16;;;;;;;;;5.75;5.75;;;;;24.62;37.23;101508.41;5056299;28;45448;-62
2022/07/05 13:19:44;;;;;;;;;4.25;4.25;;;;;24.66;36.75;101515.25;5056023;28;45346;-62
2022/07/05 13:22:10;;;;;;;;;4.00;4.00;;;;;24.73;36.80;101519.16;5055619;28;46203;-62
2022/07/05 13:24:36;;;;;;;;;3.50;3.00;;;;;24.79;36.68;101502.50;5055728;28;45501;-62
2022/07/05 13:27:02;;;;;;;;;6.25;5.25;;;;;24.88;36.36;101507.16;5056110;28;45473;-62
2022/07/05 13:29:28;;;;;;;;;3.00;3.00;;;;;24.97;36.14;101508.25;5056234;28;45545;-61
2022/07/05 13:31:54;;;;;;;;;4.00;4.00;;;;;25.10;36.28;101519.72;5056188;28;45422;-62
2022/07/05 13:34:19;;;;;;;;;3.25;3.25;;;;;25.20;35.92;101513.59;5055907;28;45467;-62
2022/07/05 13:36:45;;;;;;;;;5.00;5.00;;;;;25.24;35.76;101509.69;5056024;28;45423;-61
2022/07/05 13:39:11;;;;;;;;;5.00;4.75;;;;;25.27;35.79;101510.25;5056150;28;45506;-62
2022/07/05 13:41:36;;;;;;;;;3.75;3.75;;;;;25.41;35.50;101516.34;5055849;28;46157;-62
2022/07/05 13:44:02;;;;;;;;;4.75;4.75;;;;;25.48;35.06;101513.00;5055951;28;45439;-63
2022/07/05 13:46:27;;;;;;;;;7.00;4.50;;;;;25.50;35.65;101512.91;5055884;28;45400;-62
2022/07/05 13:48:53;;;;;;;;;4.00;4.00;;;;;25.46;35.18;101509.59;5055835;28;45574;-62
2022/07/05 13:51:18;;;;;;;;;5.00;5.00;;;;;25.42;34.87;101516.22;5055657;28;45440;-62
2022/07/05 13:53:44;;;;;;;;;4.00;4.00;;;;;25.43;35.21;101519.78;5055616;28;45433;-62
2022/07/05 13:56:09;;;;;;;;;4.00;3.75;;;;;25.45;33.95;101507.88;5055970;28;45676;-63
2022/07/05 13:58:35;;;;;;;;;5.00;4.00;;;;;25.57;34.12;101511.38;5055643;28;45341;-62
2022/07/05 14:01:02;;;;;;;;;4.00;4.00;;;;;25.73;34.28;101511.78;5055531;28;45815;-62
2022/07/05 14:03:28;;;;;;;;;4.20;4.20;;;;;25.96;34.41;101507.16;5055555;28;45528;-62
2022/07/05 14:05:53;;;;;;;;;5.00;3.00;;;;;26.22;33.37;101509.41;5055765;28;45511;-62
2022/07/05 14:08:21;;;;;;;;;4.00;4.00;;;;;26.48;32.70;101506.28;5055598;28;45588;-62
2022/07/05 14:10:51;;;;;;;;;4.00;4.00;;;;;26.79;32.19;101508.00;5055338;28;45491;-61
2022/07/05 14:13:20;;;;;;;;;4.00;4.00;;;;;27.00;32.03;101499.81;5055037;28;45469;-62
2022/07/05 14:15:47;;;;;;;;;3.00;3.00;;;;;27.45;31.48;101510.09;5055709;28;45485;-62
2022/07/05 14:18:12;;;;;;;;;3.25;3.25;;;;;28.70;29.01;101518.16;5055720;28;45539;-61
2022/07/05 14:20:38;;;;;;;;;4.00;4.00;;;;;28.44;28.71;101506.28;5055306;28;46400;-61
2022/07/05 14:23:03;;;;;;;;;4.00;3.00;;;;;29.06;28.35;101515.53;5054808;28;50118;-62
2022/07/05 14:25:29;;;;;;;;;4.75;3.00;;;;;29.46;26.80;101519.66;5055008;27;45427;-62
2022/07/05 14:27:54;;;;;;;;;3.00;3.00;;;;;28.69;27.20;101512.88;5055291;28;45474;-62
2022/07/05 14:30:20;;;;;;;;;3.25;3.25;;;;;30.64;26.67;101526.47;5055189;28;45540;-62
2022/07/05 14:32:45;;;;;;;;;3.00;3.00;;;;;32.23;24.22;101539.97;5055423;28;45433;-63
2022/07/05 14:35:10;;;;;;;;;3.00;3.00;;;;;32.95;23.70;101545.38;5056353;28;45465;-63
2022/07/05 14:37:36;;;;;;;;;4.00;4.00;;;;;33.57;22.50;101536.34;5058648;28;45434;-63
2022/07/05 14:40:04;;;;;;;;;3.00;3.00;;;;;33.20;22.78;101525.13;5058828;28;45801;-63
2022/07/05 14:42:31;;;;;;;;;2.80;2.80;;;;;32.42;23.56;101520.53;5058587;28;45490;-63
2022/07/05 14:44:56;;;;;;;;;3.20;3.20;;;;;33.19;22.53;101528.06;5059068;28;45427;-63
2022/07/05 14:47:21;;;;;;;;;3.50;3.50;;;;;34.11;22.11;101529.91;5057350;28;45575;-63
2022/07/05 14:49:47;;;;;;;;;3.00;3.00;;;;;33.42;22.41;101507.09;5058266;28;45322;-63
2022/07/05 14:52:12;;;;;;;;;4.25;4.00;;;;;32.43;22.98;101511.34;5058420;28;45390;-63
2022/07/05 14:54:37;;;;;;;;;4.00;4.00;;;;;31.45;24.11;101495.97;5058531;28;45394;-63
2022/07/05 14:57:03;;;;;;;;;4.25;4.00;;;;;30.72;25.24;101482.19;5058316;28;45646;-66
2022/07/05 14:59:28;;;;;;;;;5.50;5.50;;;;;30.11;26.04;101479.50;5058114;28;45385;-63
2022/07/05 15:01:53;;;;;;;;;5.00;4.00;;;;;29.65;26.68;101484.28;5057062;28;45370;-63
2022/07/05 15:04:19;;;;;;;;;4.25;3.50;;;;;29.11;26.70;101475.28;5058284;28;45417;-62
2022/07/05 15:06:44;;;;;;;;;5.00;3.25;;;;;28.57;27.41;101477.88;5057236;28;45375;-63
2022/07/05 15:09:10;;;;;;;;;3.00;3.00;;;;;28.04;27.60;101466.81;5058151;28;45919;-62
2022/07/05 15:11:35;;;;;;;;;4.25;4.25;;;;;27.72;28.37;101465.28;5058021;28;45454;-62
2022/07/05 15:14:02;;;;;;;;;4.00;4.00;;;;;27.52;28.32;101459.06;5056839;28;45535;-62
2022/07/05 15:16:27;;;;;;;;;2.75;2.75;;;;;27.33;28.46;101451.81;5058392;28;45516;-62
2022/07/05 15:18:53;;;;;;;;;4.00;4.00;;;;;27.24;29.14;101458.06;5057995;28;45451;-62
2022/07/05 15:21:18;;;;;;;;;5.25;4.00;;;;;27.05;28.97;101448.91;5058002;28;45547;-62
2022/07/05 15:23:44;;;;;;;;;5.00;5.00;;;;;27.00;29.49;101445.81;5057997;28;45425;-62
2022/07/05 15:26:09;;;;;;;;;3.25;3.25;;;;;26.95;29.43;101442.69;5058161;27;45546;-62
2022/07/05 15:28:34;;;;;;;;;3.00;3.00;;;;;26.94;29.40;101454.47;5057931;28;48176;-62
2022/07/05 15:31:00;;;;;;;;;3.25;3.00;;;;;26.80;29.73;101447.63;5057687;28;45492;-60
2022/07/05 15:33:29;;;;;;;;;2.75;2.75;;;;;26.80;29.32;101438.69;5057999;28;45456;-61
2022/07/05 15:35:57;;;;;;;;;3.50;3.00;;;;;26.78;29.11;101441.50;5056651;28;45417;-63
2022/07/05 15:38:23;;;;;;;;;3.25;3.25;;;;;26.78;29.60;101432.56;5057600;28;46049;-61
2022/07/05 15:40:49;;;;;;;;;5.40;4.00;;;;;26.78;29.58;101438.81;5057765;28;45417;-61
2022/07/05 15:43:14;;;;;;;;;4.00;4.00;;;;;26.70;29.67;101452.13;5057870;28;45493;-61
2022/07/05 15:45:39;;;;;;;;;2.00;2.00;;;;;26.64;29.48;101434.66;5057110;28;45402;-61
2022/07/05 15:48:05;;;;;;;;;3.75;3.75;;;;;26.60;29.72;101445.88;5057600;28;46291;-61
2022/07/05 15:50:30;;;;;;;;;3.00;3.00;;;;;26.51;29.37;101438.56;5057671;28;45458;-61
2022/07/05 15:52:56;;;;;;;;;4.75;4.75;;;;;26.49;29.79;101441.44;5057462;28;45466;-61
2022/07/05 15:55:21;;;;;;;;;7.75;7.00;;;;;26.55;30.40;101443.59;5057516;28;45616;-62
2022/07/05 15:57:46;;;;;;;;;5.00;4.00;;;;;26.60;29.60;101444.03;5057220;28;46462;-61
2022/07/05 16:00:12;;;;;;;;;3.75;3.75;;;;;26.65;29.97;101439.09;5057319;28;45375;-61
2022/07/05 16:02:37;;;;;;;;;3.50;3.50;;;;;26.67;29.63;101441.63;5057399;28;45428;-61
2022/07/05 16:05:03;;;;;;;;;3.00;3.00;;;;;26.72;29.33;101441.22;5057770;28;45422;-61
2022/07/05 16:07:28;;;;;;;;;3.25;3.25;;;;;26.65;29.80;101440.91;5057209;28;46269;-61
2022/07/05 16:09:53;;;;;;;;;3.00;3.00;;;;;26.88;28.72;101446.94;5057506;28;45527;-62
2022/07/05 16:12:20;;;;;;;;;5.00;5.00;;;;;27.63;28.25;101440.00;5056784;28;56942;-61
2022/07/05 16:14:46;;;;;;;;;2.50;2.50;;;;;28.41;27.28;101456.00;5056929;28;45561;-61
2022/07/05 16:17:11;;;;;;;;;4.60;4.60;;;;;28.98;26.64;101456.69;5057154;28;46107;-61
2022/07/05 16:19:37;;;;;;;;;4.25;4.25;;;;;29.47;26.46;101468.03;5056930;28;45489;-63
2022/07/05 16:22:02;;;;;;;;;4.00;4.00;;;;;29.44;25.58;101456.63;5057129;28;45379;-62
2022/07/05 16:24:28;;;;;;;;;3.00;3.00;;;;;29.49;24.99;101460.56;5057078;28;45489;-63
2022/07/05 16:26:53;;;;;;;;;2.25;2.25;;;;;29.63;26.01;101461.00;5057176;28;46332;-62
2022/07/05 16:29:19;;;;;;;;;4.00;4.00;;;;;29.66;24.88;101441.75;5057006;28;45447;-61
2022/07/05 16:31:44;;;;;;;;;4.00;4.00;;;;;29.71;25.00;101447.53;5057048;28;45439;-62
2022/07/05 16:34:10;;;;;;;;;2.75;2.75;;;;;29.56;25.12;101444.53;5056853;28;45581;-61
2022/07/05 16:36:36;;;;;;;;;4.00;4.00;;;;;29.30;24.86;101455.31;5056426;28;45986;-62
2022/07/05 16:39:02;;;;;;;;;3.00;3.00;;;;;28.88;25.49;101441.50;5056691;28;45341;-62
2022/07/05 16:41:29;;;;;;;;;3.00;3.00;;;;;28.35;26.42;101438.50;5056821;28;45402;-62
2022/07/05 16:43:54;;;;;;;;;3.50;3.25;;;;;28.14;26.60;101430.63;5056769;28;45385;-62
2022/07/05 16:46:20;;;;;;;;;3.75;3.75;;;;;28.16;27.39;101439.44;5056580;28;45411;-62
2022/07/05 16:48:48;;;;;;;;;2.00;2.00;;;;;28.12;27.06;101432.63;5071943;28;45481;-62
2022/07/05 16:51:18;;;;;;;;;5.20;4.00;;;;;28.17;27.59;101434.88;5056608;28;45441;-62
2022/07/05 16:53:47;;;;;;;;;2.75;2.75;;;;;28.27;27.28;101434.84;5056680;28;45532;-61
2022/07/05 16:56:13;;;;;;;;;3.00;3.00;;;;;28.35;27.24;101438.50;5072199;28;46453;-62
2022/07/05 16:58:41;;;;;;;;;3.60;3.20;;;;;28.44;26.48;101438.66;5055457;28;45458;-62
2022/07/05 17:01:11;;;;;;;;;2.00;2.00;;;;;28.47;26.96;101441.88;5056722;28;45385;-62
2022/07/05 17:03:37;;;;;;;;;4.50;4.50;;;;;28.48;26.82;101440.91;5056367;28;45599;-62
2022/07/05 17:06:04;;;;;;;;;4.50;4.50;;;;;28.62;27.09;101443.09;5056351;28;45566;-62
2022/07/05 17:08:30;;;;;;;;;3.40;3.40;;;;;29.15;26.18;101456.88;5055186;28;45548;-62
2022/07/05 17:10:55;;;;;;;;;4.00;4.00;;;;;29.48;25.78;101458.03;5056349;28;45534;-62
2022/07/05 17:13:20;;;;;;;;;3.50;3.50;;;;;29.83;25.34;101464.41;5055924;28;45575;-62
2022/07/05 17:15:46;;;;;;;;;4.00;4.00;;;;;30.22;25.00;101459.38;5056108;28;46118;-62
2022/07/05 17:18:11;;;;;;;;;4.75;4.75;;;;;30.79;24.79;101478.66;5056231;28;45420;-62
2022/07/05 17:20:36;;;;;;;;;2.00;2.00;;;;;31.09;24.41;101470.94;5056394;28;45525;-62
2022/07/05 17:23:01;;;;;;;;;4.00;4.00;;;;;30.88;23.57;101465.97;5056247;28;45418;-62
2022/07/05 17:25:27;;;;;;;;;3.00;3.00;;;;;30.81;24.43;101475.78;5055875;28;45991;-63
2022/07/05 17:27:52;;;;;;;;;3.75;3.75;;;;;30.90;24.04;101463.94;5055943;28;45428;-62
2022/07/05 17:30:17;;;;;;;;;4.25;4.25;;;;;31.14;23.64;101478.56;5056276;28;45401;-64
2022/07/05 17:32:43;;;;;;;;;4.00;4.00;;;;;31.13;23.70;101483.16;5056203;28;45488;-61
2022/07/05 17:35:08;;;;;;;;;4.00;4.00;;;;;30.58;23.66;101467.38;5055714;28;45433;-62
2022/07/05 17:37:33;;;;;;;;;5.00;5.00;;;;;30.16;24.63;101458.16;5055849;28;45489;-62
2022/07/05 17:39:59;;;;;;;;;3.75;3.75;;;;;29.94;25.02;101462.28;5055882;28;45391;-61
2022/07/05 17:42:24;;;;;;;;;3.75;3.75;;;;;29.50;25.24;101466.84;5056160;28;45544;-63
2022/07/05 17:44:49;;;;;;;;;3.00;3.00;;;;;29.24;25.25;101462.22;5055874;28;45370;-62
2022/07/05 17:47:15;;;;;;;;;2.00;2.00;;;;;29.07;25.97;101463.09;5054571;28;45461;-63
2022/07/05 17:49:40;;;;;;;;;4.00;4.00;;;;;29.17;25.81;101460.28;5056121;28;45354;-62
2022/07/05 17:52:07;;;;;;;;;3.50;3.50;;;;;29.46;25.70;101474.44;5055945;28;45390;-62
2022/07/05 17:54:32;;;;;;;;;3.80;3.80;;;;;29.21;25.43;101465.25;5055685;28;46429;-61